Time;durP1;ratioP1;P1;durP2;ratioP2;P2;SDS_P1;SDS_P2;PMS_P1;PMS_P2;Temp;Humidity;BMP_temperature;BMP_pressure;BME280_temperature;BME280_humidity;BME280_pressure;Samples;Min_cycle;Max_cycle;Signal;HPM_P1;HPM_P2
2022/10/20 00:01:51;;;;;;;5.35;4.85;;;;;;;15.55;75.67;99731.00;5101415;28;20043;-67
2022/10/20 00:04:18;;;;;;;5.80;4.40;;;;;;;15.62;75.94;99725.69;5112857;28;20059;-65
2022/10/20 00:06:45;;;;;;;4.72;4.32;;;;;;;15.66;75.63;99732.34;5106762;28;20524;-66
2022/10/20 00:09:11;;;;;;;4.82;4.43;;;;;;;15.76;75.57;99732.00;5110377;28;20048;-66
2022/10/20 00:11:38;;;;;;;8.93;4.05;;;;;;;15.73;75.05;99727.03;5107458;28;20047;-66
2022/10/20 00:14:05;;;;;;;4.25;3.97;;;;;;;15.67;75.37;99724.75;5105915;28;20054;-68
2022/10/20 00:16:35;;;;;;;5.30;4.78;;;;;;;15.48;74.18;99713.81;5105169;28;20052;-67
2022/10/20 00:19:03;;;;;;;4.90;4.50;;;;;;;15.43;75.23;99709.19;5105013;28;20051;-67
2022/10/20 00:21:31;;;;;;;4.00;3.70;;;;;;;15.33;75.17;99689.84;5109519;28;20040;-67
2022/10/20 00:24:00;;;;;;;4.18;3.88;;;;;;;15.26;75.44;99687.53;5109811;28;20047;-67
2022/10/20 00:26:28;;;;;;;5.07;4.18;;;;;;;15.43;75.67;99697.94;5107256;28;20070;-67
2022/10/20 00:28:56;;;;;;;3.90;3.70;;;;;;;15.41;75.44;99705.88;5103195;28;20040;-68
2022/10/20 00:31:23;;;;;;;3.92;3.72;;;;;;;15.41;75.01;99712.31;5105786;28;20063;-68
2022/10/20 00:33:51;;;;;;;5.15;4.70;;;;;;;15.46;75.46;99691.66;5112065;28;20388;-67
2022/10/20 00:36:20;;;;;;;4.20;3.85;;;;;;;15.46;75.04;99685.19;5109488;28;20051;-68
2022/10/20 00:38:47;;;;;;;4.22;3.83;;;;;;;15.43;75.02;99705.56;5104885;27;20052;-67
2022/10/20 00:41:19;;;;;;;6.47;4.47;;;;;;;15.39;75.10;99694.13;5110146;28;20066;-66
2022/10/20 00:44:14;;;;;;;4.15;3.85;;;;;;;15.24;75.61;99672.97;5104563;28;20494;-67
2022/10/20 00:46:42;;;;;;;6.00;4.13;;;;;;;15.38;75.60;99703.72;5087112;28;20051;-67
2022/10/20 00:49:19;;;;;;;4.20;4.00;;;;;;;15.36;75.09;99695.63;5107636;28;20051;-65
2022/10/20 00:51:46;;;;;;;5.53;4.38;;;;;;;15.48;75.84;99702.56;5104438;28;20047;-66
2022/10/20 00:54:17;;;;;;;4.72;4.32;;;;;;;15.52;75.88;99686.66;5108710;28;20051;-65
2022/10/20 00:56:46;;;;;;;3.97;3.75;;;;;;;15.46;75.75;99688.00;5106064;28;20405;-65
2022/10/20 00:59:17;;;;;;;5.13;4.67;;;;;;;15.44;75.42;99679.06;5104095;28;20051;-65
2022/10/20 01:01:44;;;;;;;3.78;3.58;;;;;;;15.41;75.79;99675.75;5103180;28;20067;-64
2022/10/20 01:04:11;;;;;;;6.80;4.85;;;;;;;15.39;75.77;99672.47;5098037;28;20134;-66
2022/10/20 01:06:38;;;;;;;4.25;3.97;;;;;;;15.44;76.29;99665.81;5106664;28;20048;-65
2022/10/20 01:09:06;;;;;;;4.20;3.80;;;;;;;15.38;75.52;99653.94;5105687;28;20058;-66
2022/10/20 01:12:11;;;;;;;4.00;3.80;;;;;;;15.33;74.92;99659.72;5101518;28;20486;-66
2022/10/20 01:15:08;;;;;;;4.40;4.10;;;;;;;15.34;75.00;99661.38;5083109;28;20055;-66
2022/10/20 01:17:56;;;;;;;5.40;4.18;;;;;;;15.53;75.71;99663.00;5106370;28;20047;-64
2022/10/20 01:20:41;;;;;;;4.00;3.70;;;;;;;15.56;75.41;99674.41;5103161;28;20494;-66
2022/10/20 01:23:16;;;;;;;4.68;4.38;;;;;;;15.53;74.89;99654.56;5103555;28;20402;-65
2022/10/20 01:25:52;;;;;;;4.43;4.13;;;;;;;15.55;75.26;99653.03;5098046;28;20051;-65
2022/10/20 01:28:37;;;;;;;5.47;3.80;;;;;;;15.52;75.02;99652.88;5104559;28;20058;-65
2022/10/20 01:31:18;;;;;;;4.43;4.00;;;;;;;15.55;74.89;99653.03;5101734;28;20410;-64
2022/10/20 01:34:06;;;;;;;4.65;4.25;;;;;;;15.44;74.60;99646.13;5104323;28;20047;-66
2022/10/20 01:37:04;;;;;;;3.70;3.50;;;;;;;15.56;74.52;99668.78;5105063;28;20517;-65
2022/10/20 01:39:35;;;;;;;3.80;3.60;;;;;;;15.68;74.91;99670.91;5092220;28;20047;-65
2022/10/20 01:42:15;;;;;;;5.13;4.75;;;;;;;15.68;74.06;99639.94;5104533;28;20055;-64
2022/10/20 01:44:43;;;;;;;4.95;4.35;;;;;;;15.74;74.28;99641.41;5097241;28;20050;-65
2022/10/20 01:47:10;;;;;;;4.90;4.43;;;;;;;15.76;73.81;99625.03;5098287;28;20051;-64
2022/10/20 01:49:42;;;;;;;5.13;4.47;;;;;;;15.83;73.76;99618.88;5097984;28;20055;-66
2022/10/20 01:52:12;;;;;;;3.90;3.70;;;;;;;15.93;73.23;99635.38;5100497;28;20044;-65
2022/10/20 01:54:39;;;;;;;5.05;3.90;;;;;;;15.97;73.29;99641.16;5098119;28;20426;-64
2022/10/20 01:57:24;;;;;;;4.28;4.07;;;;;;;15.98;72.26;99638.00;5105156;28;20345;-64
2022/10/20 02:00:07;;;;;;;4.57;4.18;;;;;;;16.04;72.74;99641.47;5104396;28;20058;-65
2022/10/20 02:03:11;;;;;;;5.20;4.20;;;;;;;16.09;71.93;99641.25;5104290;28;20043;-64
2022/10/20 02:06:01;;;;;;;4.00;3.63;;;;;;;16.15;72.68;99639.91;5103115;28;20126;-65
2022/10/20 02:08:37;;;;;;;12.23;4.22;;;;;;;16.18;72.86;99638.41;5104982;28;20340;-66
2022/10/20 02:11:06;;;;;;;5.00;4.13;;;;;;;16.23;73.02;99636.19;5103525;28;20738;-65
2022/10/20 02:13:36;;;;;;;3.80;3.60;;;;;;;16.28;73.25;99633.19;5107500;28;20055;-65
2022/10/20 02:16:10;;;;;;;3.70;3.40;;;;;;;16.32;73.16;99625.69;5107371;28;20048;-65
2022/10/20 02:18:41;;;;;;;3.63;3.42;;;;;;;16.43;73.36;99619.66;5106847;28;20055;-65
2022/10/20 02:21:09;;;;;;;3.65;3.40;;;;;;;16.47;72.98;99623.44;5104871;28;20387;-65
2022/10/20 02:23:43;;;;;;;3.60;3.40;;;;;;;16.48;72.92;99611.84;5111948;28;20452;-65
2022/10/20 02:26:13;;;;;;;5.32;3.90;;;;;;;16.46;72.36;99579.53;5112165;28;20059;-65
2022/10/20 02:28:45;;;;;;;5.40;3.67;;;;;;;16.47;72.20;99586.81;5102674;28;20052;-66
2022/10/20 02:31:13;;;;;;;6.05;3.83;;;;;;;16.58;72.58;99593.66;5098329;28;20060;-65
2022/10/20 02:33:43;;;;;;;7.82;3.60;;;;;;;16.57;72.51;99578.75;5096757;28;20055;-65
2022/10/20 02:36:15;;;;;;;7.40;4.00;;;;;;;16.61;72.23;99590.16;5105730;28;20055;-65
2022/10/20 02:38:42;;;;;;;3.70;3.40;;;;;;;16.66;72.51;99594.78;5104412;28;20052;-65
2022/10/20 02:41:09;;;;;;;4.32;3.80;;;;;;;16.71;72.74;99598.19;5109738;28;20048;-64
2022/10/20 02:43:36;;;;;;;4.18;3.88;;;;;;;16.72;71.75;99593.41;5106579;28;20039;-65
2022/10/20 02:46:03;;;;;;;3.85;3.60;;;;;;;16.81;71.56;99578.06;5101163;28;20039;-65
2022/10/20 02:48:30;;;;;;;3.97;3.67;;;;;;;16.85;71.77;99586.66;5105424;28;20055;-66
2022/10/20 02:50:57;;;;;;;6.47;3.70;;;;;;;16.83;71.77;99572.09;5107304;28;20225;-66
2022/10/20 02:53:24;;;;;;;4.35;4.05;;;;;;;16.84;71.41;99601.13;5107003;27;20050;-67
2022/10/20 02:55:51;;;;;;;5.03;3.70;;;;;;;16.88;71.86;99573.88;5108541;28;20131;-67
2022/10/20 02:58:17;;;;;;;4.72;4.32;;;;;;;16.89;71.37;99573.53;5100647;28;20063;-67
2022/10/20 03:00:44;;;;;;;4.18;3.70;;;;;;;16.90;72.05;99566.72;5105887;28;20043;-67
2022/10/20 03:03:11;;;;;;;8.93;4.20;;;;;;;16.89;71.96;99583.97;5101428;28;20051;-66
2022/10/20 03:05:40;;;;;;;4.05;3.75;;;;;;;16.85;71.11;99572.56;5103133;28;20055;-66
2022/10/20 03:08:07;;;;;;;6.15;3.65;;;;;;;16.89;71.67;99567.06;5105469;28;20426;-67
2022/10/20 03:10:36;;;;;;;4.47;4.07;;;;;;;16.85;71.08;99557.66;5103868;28;20044;-65
2022/10/20 03:13:04;;;;;;;4.60;3.95;;;;;;;16.94;71.07;99552.75;5111456;28;20047;-65
2022/10/20 03:15:31;;;;;;;4.07;3.78;;;;;;;16.97;71.61;99549.25;5104750;28;20067;-66
2022/10/20 03:17:58;;;;;;;6.53;3.88;;;;;;;16.92;71.37;99567.22;5107615;28;20051;-65
2022/10/20 03:20:24;;;;;;;3.70;3.50;;;;;;;16.91;71.61;99557.09;5095461;28;20050;-65
2022/10/20 03:22:51;;;;;;;4.50;4.10;;;;;;;16.94;71.74;99536.66;5106954;28;20050;-64
2022/10/20 03:25:18;;;;;;;6.53;4.10;;;;;;;16.95;71.89;99568.50;5108594;28;20066;-66
2022/10/20 03:27:45;;;;;;;5.50;3.85;;;;;;;16.89;72.01;99536.88;5103902;28;20048;-66
2022/10/20 03:30:12;;;;;;;5.20;3.47;;;;;;;16.91;72.36;99528.06;5102286;28;20051;-65
2022/10/20 03:32:38;;;;;;;4.15;3.75;;;;;;;16.92;72.01;99544.66;5100495;28;20505;-65
2022/10/20 03:35:06;;;;;;;6.20;3.72;;;;;;;16.96;72.48;99514.56;5111545;28;20406;-64
2022/10/20 03:37:33;;;;;;;5.68;4.80;;;;;;;16.98;72.09;99519.84;5111279;28;20048;-64
2022/10/20 03:39:59;;;;;;;4.13;3.70;;;;;;;16.86;72.01;99502.91;5106560;28;20053;-65
2022/10/20 03:42:26;;;;;;;6.70;3.70;;;;;;;16.94;72.32;99510.44;5102432;28;20059;-68
2022/10/20 03:44:53;;;;;;;5.32;4.22;;;;;;;16.99;72.72;99502.59;5101515;28;20051;-64
2022/10/20 03:47:20;;;;;;;4.10;3.80;;;;;;;17.02;72.73;99450.28;5100377;28;20047;-64
2022/10/20 03:49:47;;;;;;;4.25;3.92;;;;;;;17.08;72.86;99519.41;5103767;28;20056;-64
2022/10/20 03:52:14;;;;;;;3.92;3.50;;;;;;;17.08;72.67;99516.59;5100576;28;20039;-63
2022/10/20 03:54:42;;;;;;;4.70;4.35;;;;;;;17.03;72.87;99514.00;5106924;28;20043;-63
2022/10/20 03:57:09;;;;;;;4.97;4.03;;;;;;;16.96;72.75;99477.91;5101514;28;20979;-63
2022/10/20 03:59:36;;;;;;;5.25;4.50;;;;;;;17.01;72.28;99510.69;5105329;28;20058;-64
2022/10/20 04:02:03;;;;;;;6.38;3.83;;;;;;;17.09;72.66;99498.47;5101475;28;20044;-64
2022/10/20 04:04:30;;;;;;;4.32;4.05;;;;;;;17.10;72.63;99488.03;5101538;28;20051;-63
2022/10/20 04:06:57;;;;;;;4.45;4.07;;;;;;;17.12;73.10;99517.53;5110168;28;20413;-63
2022/10/20 04:09:23;;;;;;;4.32;3.70;;;;;;;17.09;72.69;99512.59;5111106;28;20490;-63
2022/10/20 04:11:50;;;;;;;4.20;3.90;;;;;;;17.10;72.62;99536.81;5108147;28;20055;-64
2022/10/20 04:14:17;;;;;;;4.32;3.92;;;;;;;17.17;73.47;99522.16;5099017;28;20118;-64
2022/10/20 04:16:44;;;;;;;4.63;4.32;;;;;;;17.12;72.75;99528.81;5101485;28;20059;-63
2022/10/20 04:19:10;;;;;;;5.50;4.60;;;;;;;17.02;72.70;99498.22;5106664;28;20063;-64
2022/10/20 04:21:37;;;;;;;5.22;4.82;;;;;;;17.16;72.79;99517.66;5106649;28;20051;-64
2022/10/20 04:24:06;;;;;;;6.07;4.10;;;;;;;17.21;72.90;99515.44;5107425;28;20428;-64
2022/10/20 04:26:32;;;;;;;4.47;3.88;;;;;;;17.17;73.24;99508.84;5107451;28;20051;-64
2022/10/20 04:28:59;;;;;;;4.13;3.72;;;;;;;17.03;72.99;99497.09;5107373;28;20047;-64
2022/10/20 04:31:26;;;;;;;4.53;4.10;;;;;;;17.00;72.63;99483.69;5109381;28;20094;-64
2022/10/20 04:33:53;;;;;;;4.47;4.00;;;;;;;16.89;73.21;99496.56;5103506;28;20435;-65
2022/10/20 04:36:20;;;;;;;4.05;3.83;;;;;;;16.89;73.30;99488.94;5104313;28;20056;-67
2022/10/20 04:38:46;;;;;;;4.85;4.45;;;;;;;16.88;73.46;99473.19;5107853;28;20052;-68
2022/10/20 04:41:13;;;;;;;4.38;3.97;;;;;;;16.89;73.31;99471.19;5107624;28;20055;-68
2022/10/20 04:43:40;;;;;;;3.80;3.50;;;;;;;16.84;74.17;99483.50;5101364;28;20063;-69
2022/10/20 04:46:07;;;;;;;4.03;3.72;;;;;;;16.87;73.82;99501.75;5102309;28;20052;-68
2022/10/20 04:48:35;;;;;;;3.30;3.10;;;;;;;16.87;73.91;99498.91;5110475;28;20051;-68
2022/10/20 04:51:07;;;;;;;4.25;3.95;;;;;;;16.80;73.20;99488.22;5099342;28;20055;-68
2022/10/20 04:53:34;;;;;;;5.85;3.80;;;;;;;16.71;73.90;99457.25;5108219;28;20524;-68
2022/10/20 04:56:03;;;;;;;3.88;3.67;;;;;;;16.62;72.91;99470.63;5108601;28;20043;-68
2022/10/20 04:58:30;;;;;;;4.63;3.55;;;;;;;16.70;73.30;99457.59;5109918;28;20055;-65
2022/10/20 05:01:06;;;;;;;4.18;3.85;;;;;;;16.64;73.00;99459.00;5103334;28;20056;-65
2022/10/20 05:03:34;;;;;;;6.63;3.95;;;;;;;16.70;73.46;99466.06;5106911;28;20043;-65
2022/10/20 05:06:18;;;;;;;4.32;4.00;;;;;;;16.61;73.09;99437.13;5104399;28;20062;-65
2022/10/20 05:08:47;;;;;;;3.80;3.60;;;;;;;16.62;73.35;99461.34;5105389;28;20051;-66
2022/10/20 05:11:15;;;;;;;5.75;4.25;;;;;;;16.57;73.36;99459.56;5102091;28;20414;-64
2022/10/20 05:13:43;;;;;;;3.85;3.60;;;;;;;16.54;73.03;99451.78;5106673;28;20059;-64
2022/10/20 05:16:10;;;;;;;4.75;3.83;;;;;;;16.59;73.19;99443.13;5102350;28;20047;-63
2022/10/20 05:18:38;;;;;;;9.45;4.43;;;;;;;16.61;73.31;99449.22;5105724;28;20062;-66
2022/10/20 05:21:10;;;;;;;4.85;4.55;;;;;;;16.52;73.16;99445.69;5100307;28;20182;-64
2022/10/20 05:23:38;;;;;;;3.75;3.55;;;;;;;16.58;73.07;99473.31;5105145;28;20074;-64
2022/10/20 05:26:09;;;;;;;4.28;3.80;;;;;;;16.63;73.39;99458.19;5103377;28;20494;-65
2022/10/20 05:28:36;;;;;;;4.72;4.32;;;;;;;16.60;73.25;99447.59;5103176;28;20059;-64
2022/10/20 05:31:05;;;;;;;4.38;3.88;;;;;;;16.55;73.03;99419.66;5109076;28;20055;-65
2022/10/20 05:33:33;;;;;;;4.78;4.00;;;;;;;16.59;72.81;99426.22;5106730;28;20054;-65
2022/10/20 05:36:06;;;;;;;5.07;3.30;;;;;;;16.60;72.84;99436.31;5103565;28;20062;-65
2022/10/20 05:38:35;;;;;;;2.97;2.78;;;;;;;16.66;73.23;99405.94;5104491;28;20048;-64
2022/10/20 05:41:16;;;;;;;3.17;2.70;;;;;;;16.83;72.82;99413.38;5106258;28;20051;-66
2022/10/20 05:43:48;;;;;;;4.18;2.65;;;;;;;16.80;72.41;99401.63;5105597;28;20775;-66
2022/10/20 05:46:16;;;;;;;5.60;3.42;;;;;;;16.75;72.98;99401.03;5096141;28;20055;-65
2022/10/20 05:48:44;;;;;;;3.05;2.85;;;;;;;16.65;73.30;99398.63;5106680;28;20054;-67
2022/10/20 05:51:15;;;;;;;4.07;3.42;;;;;;;16.77;73.56;99416.41;5094684;28;20063;-66
2022/10/20 05:53:43;;;;;;;3.80;3.60;;;;;;;16.74;73.60;99403.03;5096768;28;20490;-66
2022/10/20 05:56:13;;;;;;;4.05;3.65;;;;;;;16.71;73.52;99403.69;5103850;28;20051;-64
2022/10/20 05:58:41;;;;;;;5.72;4.15;;;;;;;16.80;73.79;99398.81;5105566;28;20382;-64
2022/10/20 06:01:22;;;;;;;3.28;2.92;;;;;;;16.84;73.59;99406.56;5098658;28;20047;-65
2022/10/20 06:03:57;;;;;;;3.78;3.03;;;;;;;16.86;73.23;99430.44;5102172;28;20044;-67
2022/10/20 06:06:29;;;;;;;4.25;3.95;;;;;;;16.90;72.83;99416.44;5100751;28;20524;-64
2022/10/20 06:08:58;;;;;;;5.03;3.28;;;;;;;16.96;73.34;99418.69;5095575;28;20051;-66
2022/10/20 06:11:25;;;;;;;4.80;3.43;;;;;;;17.01;73.22;99435.38;5099845;28;20632;-66
2022/10/20 06:13:52;;;;;;;4.45;4.22;;;;;;;17.11;72.68;99431.25;5104622;28;20803;-67
2022/10/20 06:16:22;;;;;;;3.65;3.45;;;;;;;17.07;72.17;99423.88;5105180;28;20063;-66
2022/10/20 06:18:50;;;;;;;3.47;3.28;;;;;;;17.00;72.49;99432.91;5105404;28;20056;-66
2022/10/20 06:21:27;;;;;;;4.45;4.15;;;;;;;17.02;73.04;99422.09;5103563;28;20141;-67
2022/10/20 06:23:54;;;;;;;3.25;3.05;;;;;;;16.93;73.36;99379.91;5108971;28;20050;-66
2022/10/20 06:26:28;;;;;;;4.35;3.53;;;;;;;16.87;73.04;99355.13;5103187;28;20055;-66
2022/10/20 06:28:56;;;;;;;4.47;4.18;;;;;;;16.83;72.54;99410.56;5108385;28;20058;-67
2022/10/20 06:31:33;;;;;;;2.90;2.70;;;;;;;16.79;72.92;99388.72;5100947;28;20055;-65
2022/10/20 06:34:02;;;;;;;3.55;3.20;;;;;;;16.73;71.85;99398.53;5103793;28;20055;-67
2022/10/20 06:36:29;;;;;;;4.32;4.03;;;;;;;16.71;72.16;99406.50;5095834;28;20052;-66
2022/10/20 06:38:57;;;;;;;4.35;4.15;;;;;;;16.67;72.60;99394.28;5105002;27;21868;-67
2022/10/20 06:41:25;;;;;;;4.45;3.50;;;;;;;16.66;72.83;99405.94;5101564;28;20513;-67
2022/10/20 06:43:57;;;;;;;4.97;4.55;;;;;;;16.63;73.63;99384.06;5097871;28;20048;-66
2022/10/20 06:46:25;;;;;;;3.40;3.20;;;;;;;16.68;73.97;99381.81;5099387;28;20056;-67
2022/10/20 06:48:52;;;;;;;4.35;3.95;;;;;;;16.59;74.98;99398.03;5107029;28;20043;-66
2022/10/20 06:51:24;;;;;;;3.88;3.60;;;;;;;16.53;75.44;99400.25;5104104;28;20083;-66
2022/10/20 06:53:51;;;;;;;5.72;5.43;;;;;;;16.52;75.21;99423.16;5104445;28;20051;-66
2022/10/20 06:56:27;;;;;;;4.90;4.32;;;;;;;16.55;75.62;99391.47;5096953;28;20055;-67
2022/10/20 06:58:56;;;;;;;4.18;3.88;;;;;;;16.48;75.53;99374.31;5099086;28;20054;-68
2022/10/20 07:01:25;;;;;;;3.60;3.40;;;;;;;16.43;75.61;99375.34;5096301;28;20422;-67
2022/10/20 07:03:58;;;;;;;4.30;3.90;;;;;;;16.44;76.07;99373.34;5101001;28;20134;-73
2022/10/20 07:06:27;;;;;;;4.15;3.85;;;;;;;16.47;76.32;99369.81;5098956;28;20059;-72
2022/10/20 07:08:57;;;;;;;4.40;4.05;;;;;;;16.58;76.32;99383.13;5091994;28;20056;-68
2022/10/20 07:11:27;;;;;;;3.72;3.42;;;;;;;16.51;76.24;99362.31;5105436;28;20082;-69
2022/10/20 07:13:56;;;;;;;4.05;3.58;;;;;;;16.48;75.74;99397.66;5099464;28;20052;-69
2022/10/20 07:16:24;;;;;;;4.65;4.30;;;;;;;16.61;75.74;99412.59;5103872;28;20059;-69
2022/10/20 07:18:52;;;;;;;4.00;3.63;;;;;;;16.70;75.61;99392.78;5108359;28;20068;-69
2022/10/20 07:21:21;;;;;;;5.30;4.88;;;;;;;16.73;75.17;99353.44;5107352;28;20051;-70
2022/10/20 07:23:49;;;;;;;6.73;4.27;;;;;;;16.75;75.15;99384.94;5108943;28;20055;-70
2022/10/20 07:26:19;;;;;;;5.65;5.25;;;;;;;16.79;75.46;99394.34;5105470;28;20058;-70
2022/10/20 07:28:48;;;;;;;5.70;5.20;;;;;;;16.87;75.45;99383.31;5107037;28;20048;-70
2022/10/20 07:31:29;;;;;;;7.38;5.03;;;;;;;16.95;75.02;99377.53;5103336;28;20375;-69
2022/10/20 07:33:59;;;;;;;4.40;4.00;;;;;;;17.05;74.70;99360.16;5106695;28;20419;-70
2022/10/20 07:36:45;;;;;;;6.05;4.45;;;;;;;17.22;74.97;99369.56;5112710;28;20055;-70
2022/10/20 07:39:12;;;;;;;4.15;3.85;;;;;;;17.11;74.15;99362.75;5106268;28;20048;-70
2022/10/20 07:41:42;;;;;;;4.50;4.20;;;;;;;17.24;74.49;99386.97;5097507;28;20056;-70
2022/10/20 07:44:09;;;;;;;4.72;4.32;;;;;;;17.29;74.84;99359.31;5100086;28;20100;-69
2022/10/20 07:46:36;;;;;;;5.03;4.72;;;;;;;17.35;75.05;99387.28;5097061;28;20497;-69
2022/10/20 07:49:03;;;;;;;5.30;4.90;;;;;;;17.46;74.80;99385.63;5101226;28;20399;-69
2022/10/20 07:51:50;;;;;;;5.63;3.80;;;;;;;17.51;74.41;99403.16;5090875;28;20060;-70
2022/10/20 07:54:17;;;;;;;4.45;3.70;;;;;;;17.60;74.30;99380.41;5097978;28;20044;-70
2022/10/20 07:56:45;;;;;;;4.43;4.13;;;;;;;17.73;74.33;99406.63;5093778;28;20052;-69
2022/10/20 07:59:13;;;;;;;4.60;4.10;;;;;;;17.79;73.78;99371.34;5094578;28;20055;-69
2022/10/20 08:01:40;;;;;;;4.63;4.00;;;;;;;17.96;73.86;99375.91;5098903;28;20462;-70
2022/10/20 08:04:07;;;;;;;6.60;4.78;;;;;;;18.13;73.95;99391.72;5103445;28;20251;-70
2022/10/20 08:06:34;;;;;;;5.35;4.35;;;;;;;18.24;73.55;99406.97;5094411;28;20639;-69
2022/10/20 08:09:01;;;;;;;5.50;5.00;;;;;;;18.20;72.83;99378.59;5099121;28;20078;-69
2022/10/20 08:11:28;;;;;;;5.03;4.28;;;;;;;18.24;73.12;99382.34;5096589;28;20514;-69
2022/10/20 08:13:55;;;;;;;4.70;4.30;;;;;;;18.24;73.10;99401.31;5103008;28;20478;-69
2022/10/20 08:16:22;;;;;;;8.48;5.38;;;;;;;18.14;73.34;99377.22;5101363;28;20052;-70
2022/10/20 08:18:54;;;;;;;7.10;4.53;;;;;;;18.29;73.24;99389.75;5104526;28;20052;-69
2022/10/20 08:21:24;;;;;;;6.55;4.53;;;;;;;18.23;73.17;99377.88;5098363;28;20451;-70
2022/10/20 08:23:50;;;;;;;5.07;4.57;;;;;;;18.28;73.46;99373.16;5092619;28;20405;-70
2022/10/20 08:26:23;;;;;;;4.13;3.83;;;;;;;18.30;73.70;99362.31;5097438;28;20052;-70
2022/10/20 08:28:52;;;;;;;5.85;4.25;;;;;;;18.28;73.20;99387.28;5102437;28;20449;-70
2022/10/20 08:31:19;;;;;;;6.00;5.27;;;;;;;18.32;73.54;99389.00;5097602;28;20059;-69
2022/10/20 08:33:46;;;;;;;4.60;4.30;;;;;;;18.38;74.04;99364.16;5098326;28;20296;-69
2022/10/20 08:36:19;;;;;;;4.25;3.85;;;;;;;18.35;73.78;99390.31;5103363;28;20048;-70
2022/10/20 08:38:47;;;;;;;6.45;4.40;;;;;;;18.11;74.08;99409.00;5099207;28;20066;-70
2022/10/20 08:41:28;;;;;;;5.75;4.63;;;;;;;17.73;74.91;99310.63;5098998;28;20498;-70
2022/10/20 08:44:23;;;;;;;5.45;5.03;;;;;;;17.49;76.22;99379.28;5094120;28;20770;-69
2022/10/20 08:46:51;;;;;;;6.07;5.57;;;;;;;17.42;77.29;99388.34;5100344;28;20051;-69
2022/10/20 08:49:31;;;;;;;6.13;5.22;;;;;;;17.42;77.35;99410.09;5091881;28;20047;-69
2022/10/20 08:51:58;;;;;;;;;;;;;;;17.36;77.45;99374.81;5103216;28;20057;-69
2022/10/20 08:54:25;;;;;;;5.40;4.38;;;;;;;17.68;77.43;99379.47;5103945;28;20977;-69
2022/10/20 08:56:51;;;;;;;6.03;5.00;;;;;;;17.80;76.25;99389.94;5099581;28;20497;-69
2022/10/20 08:59:18;;;;;;;5.72;4.53;;;;;;;18.08;76.33;99375.81;5098361;28;20058;-69
2022/10/20 09:01:45;;;;;;;5.82;5.38;;;;;;;18.04;75.11;99377.72;5096252;28;20525;-70
2022/10/20 09:04:20;;;;;;;10.35;5.15;;;;;;;18.26;74.60;99375.53;5102308;28;20051;-69
2022/10/20 09:06:52;;;;;;;8.77;5.88;;;;;;;18.47;74.46;99418.53;5107528;28;20043;-69
2022/10/20 09:09:22;;;;;;;5.88;5.32;;;;;;;18.46;73.06;99395.09;5103784;28;20048;-69
2022/10/20 09:11:50;;;;;;;5.68;4.35;;;;;;;18.51;72.64;99367.72;5103215;28;20052;-70
2022/10/20 09:14:16;;;;;;;6.70;6.05;;;;;;;18.62;73.54;99397.94;5105334;28;20040;-69
2022/10/20 09:16:45;;;;;;;6.15;4.05;;;;;;;18.69;73.27;99398.13;5105514;28;20056;-69
2022/10/20 09:19:27;;;;;;;10.52;4.75;;;;;;;18.64;72.87;99389.91;5100558;28;20506;-68
2022/10/20 09:21:56;;;;;;;5.00;4.60;;;;;;;18.52;72.31;99367.34;5105043;28;20047;-69
2022/10/20 09:24:28;;;;;;;9.05;4.30;;;;;;;18.73;73.06;99391.75;5108654;28;20047;-69
2022/10/20 09:27:14;;;;;;;5.72;5.22;;;;;;;18.73;72.58;99398.25;5106183;28;20122;-69
2022/10/20 09:29:41;;;;;;;7.38;4.90;;;;;;;18.75;72.11;99401.53;5106776;28;20054;-69
2022/10/20 09:32:34;;;;;;;5.65;5.18;;;;;;;18.86;71.08;99384.84;5111526;27;20055;-70
2022/10/20 09:35:24;;;;;;;10.70;6.25;;;;;;;18.72;71.16;99385.28;5104252;28;20437;-69
2022/10/20 09:38:00;;;;;;;5.60;4.70;;;;;;;18.82;72.12;99403.72;5102675;28;20063;-69
2022/10/20 09:40:27;;;;;;;5.78;5.28;;;;;;;19.07;72.80;99433.47;5102473;28;20339;-69
2022/10/20 09:43:15;;;;;;;5.07;4.57;;;;;;;19.27;71.96;99382.63;5105225;28;20063;-69
2022/10/20 09:45:53;;;;;;;8.75;4.30;;;;;;;19.49;71.62;99398.13;5107612;28;20043;-69
2022/10/20 09:48:24;;;;;;;5.25;4.20;;;;;;;19.60;71.09;99405.66;5105314;28;20405;-70
2022/10/20 09:50:54;;;;;;;7.72;4.40;;;;;;;19.76;70.96;99390.66;5104610;28;20660;-70
2022/10/20 09:53:29;;;;;;;4.95;3.97;;;;;;;19.57;69.45;99392.25;5108636;28;20052;-69
2022/10/20 09:55:56;;;;;;;11.50;4.47;;;;;;;19.16;71.61;99390.84;5106457;27;20407;-69
2022/10/20 09:58:32;;;;;;;5.45;5.05;;;;;;;18.74;73.26;99394.25;5102740;28;20058;-69
2022/10/20 10:01:03;;;;;;;7.07;5.60;;;;;;;18.56;74.50;99405.03;5104330;28;20059;-68
2022/10/20 10:03:45;;;;;;;5.03;4.68;;;;;;;18.31;75.10;99400.69;5097033;28;20084;-69
2022/10/20 10:06:39;;;;;;;6.72;6.18;;;;;;;18.06;75.90;99414.94;5098648;28;20056;-69
2022/10/20 10:09:31;;;;;;;8.65;4.85;;;;;;;18.11;76.39;99400.53;5104654;28;20051;-69
2022/10/20 10:12:15;;;;;;;10.02;6.40;;;;;;;17.69;77.55;99402.88;5098294;28;20362;-69
2022/10/20 10:15:04;;;;;;;8.93;8.32;;;;;;;17.25;79.50;99411.97;5100950;28;20051;-69
2022/10/20 10:17:39;;;;;;;8.50;7.47;;;;;;;17.26;80.10;99393.91;5104923;27;20051;-68
2022/10/20 10:20:31;;;;;;;10.40;6.63;;;;;;;17.34;80.44;99377.19;5104005;28;20387;-69
2022/10/20 10:23:21;;;;;;;6.80;6.38;;;;;;;17.89;80.39;99370.03;5109711;28;20055;-68
2022/10/20 10:25:49;;;;;;;8.52;6.70;;;;;;;18.36;79.51;99377.81;5103788;28;20051;-68
2022/10/20 10:28:37;;;;;;;5.18;4.88;;;;;;;18.58;78.04;99390.53;5098636;28;20055;-68
2022/10/20 10:31:23;;;;;;;7.65;5.60;;;;;;;18.66;77.16;99362.06;5108331;28;20074;-69
2022/10/20 10:34:00;;;;;;;15.88;6.40;;;;;;;18.61;77.56;99387.81;5098028;28;20067;-68
2022/10/20 10:36:30;;;;;;;5.72;4.95;;;;;;;18.61;77.87;99403.97;5105754;28;20047;-69
2022/10/20 10:38:58;;;;;;;7.07;5.68;;;;;;;18.73;77.26;99386.94;5101301;28;20050;-69
2022/10/20 10:41:43;;;;;;;13.15;5.38;;;;;;;19.04;77.78;99397.44;5106860;28;20044;-69
2022/10/20 10:44:23;;;;;;;5.85;5.10;;;;;;;20.13;76.67;99394.69;5101888;28;20054;-69
2022/10/20 10:47:25;;;;;;;;;;;;;;;21.28;78.37;99389.16;5103876;28;20056;-69
2022/10/20 10:50:10;;;;;;;6.78;6.20;;;;;;;22.29;73.72;99405.69;5065422;28;19931;-69
2022/10/20 10:53:01;;;;;;;6.00;4.68;;;;;;;23.68;67.68;99380.56;5097358;28;20417;-70
2022/10/20 10:55:37;;;;;;;5.82;4.93;;;;;;;24.32;69.92;99369.47;5101124;28;20043;-70
2022/10/20 10:58:29;;;;;;;5.55;4.95;;;;;;;23.99;68.89;99372.56;5100161;27;20506;-68
2022/10/20 11:01:15;;;;;;;4.95;4.55;;;;;;;23.21;65.49;99328.09;5103375;28;20056;-69
2022/10/20 11:03:57;;;;;;;6.18;5.60;;;;;;;22.62;67.73;99393.44;5099947;28;20126;-69
2022/10/20 11:06:24;;;;;;;6.05;5.55;;;;;;;22.15;70.02;99408.31;5100793;28;20044;-70
2022/10/20 11:09:04;;;;;;;12.15;6.78;;;;;;;21.40;69.67;99391.00;5105230;28;20043;-69
2022/10/20 11:11:36;;;;;;;5.57;5.00;;;;;;;20.86;71.69;99389.25;5107710;28;20061;-69
2022/10/20 11:14:56;;;;;;;5.13;4.45;;;;;;;20.42;72.48;99398.13;5103896;28;20059;-70
2022/10/20 11:17:51;;;;;;;6.00;5.07;;;;;;;19.87;72.90;99377.56;5101095;28;20478;-70
2022/10/20 11:20:18;;;;;;;6.28;4.85;;;;;;;19.61;74.20;99406.47;5104035;28;20059;-69
2022/10/20 11:23:08;;;;;;;5.25;4.78;;;;;;;19.59;73.38;99378.56;5101939;28;20068;-69
2022/10/20 11:25:57;;;;;;;6.60;5.68;;;;;;;19.87;73.12;99383.22;5100782;28;20070;-69
2022/10/20 11:28:29;;;;;;;6.45;5.82;;;;;;;20.25;74.21;99401.44;5105200;28;20112;-69
2022/10/20 11:30:58;;;;;;;9.25;6.13;;;;;;;20.35;74.02;99392.31;5100141;28;20418;-69
2022/10/20 11:33:47;;;;;;;16.60;6.67;;;;;;;20.36;73.82;99416.63;5100079;28;20043;-69
2022/10/20 11:36:17;;;;;;;;;;;;;;;20.18;74.04;99413.44;5108455;28;20391;-68
2022/10/20 11:38:53;;;;;;;7.28;5.75;;;;;;;20.30;74.63;99398.28;5100943;28;20290;-70
2022/10/20 11:41:37;;;;;;;10.73;5.57;;;;;;;20.21;72.89;99397.72;5101197;28;20052;-68
2022/10/20 11:44:12;;;;;;;8.30;5.57;;;;;;;20.26;73.80;99403.88;5099563;28;20051;-69
2022/10/20 11:46:47;;;;;;;5.60;4.95;;;;;;;20.38;75.07;99416.28;5107334;28;20062;-69
2022/10/20 11:49:14;;;;;;;5.45;4.85;;;;;;;20.43;74.92;99427.31;5104496;28;20517;-69
2022/10/20 11:51:59;;;;;;;13.27;6.15;;;;;;;20.29;73.70;99411.66;5104514;28;20051;-69
2022/10/20 11:54:38;;;;;;;9.35;6.45;;;;;;;19.84;73.27;99401.78;5109290;28;20044;-68
2022/10/20 11:57:14;;;;;;;8.50;6.00;;;;;;;19.63;75.14;99418.31;5114666;28;20043;-69
2022/10/20 11:59:59;;;;;;;10.15;6.07;;;;;;;19.36;76.35;99380.44;5109308;28;20048;-69